Wednesday, October 18, 2017, 6:07 PM EDT
Back to Local

KW99, Petersburg, Grant County Airport

Location: Petersburg, WV, United States Lat: 38.983
Local Time: 6:07 PM EDT (22:07 GMT) Lon: -79.133
Time Zone: US/Eastern Elev: 961 ft

Show me the last for .
Show Decoded

2017-10-18 17:55 METAR KW99 182155Z AUTO 14005KT 10SM CLR 20/05 A3025 RMK AO2 T01950045 =
2017-10-18 17:35 METAR KW99 182135Z AUTO 13006KT 10SM CLR 21/05 A3025 RMK AO2 T02050048 =
2017-10-18 17:15 METAR KW99 182115Z AUTO 11003KT 10SM CLR 22/05 A3026 RMK AO2 T02150045 =
2017-10-18 16:55 METAR KW99 182055Z AUTO 07004KT 10SM CLR 22/04 A3026 RMK AO2 T02150044 =
2017-10-18 16:35 METAR KW99 182035Z AUTO 09006KT 10SM CLR 22/04 A3026 RMK AO2 T02170039 =
2017-10-18 16:15 METAR KW99 182015Z AUTO 00000KT 10SM CLR 22/03 A3027 RMK AO2 T02170030 =
2017-10-18 15:55 METAR KW99 181955Z AUTO 09003KT 10SM CLR 22/04 A3027 RMK AO2 T02200037 =
2017-10-18 15:35 METAR KW99 181935Z AUTO 00000KT 10SM CLR 22/03 A3028 RMK AO2 T02150028 =
2017-10-18 15:15 METAR KW99 181915Z AUTO 00000KT 10SM CLR 21/03 A3029 RMK AO2 T02140034 =
2017-10-18 14:55 METAR KW99 181855Z AUTO 00000KT 10SM CLR 21/04 A3029 RMK AO2 T02100035 =
2017-10-18 14:35 METAR KW99 181835Z AUTO 09003KT 10SM CLR 21/04 A3031 RMK AO2 T02100038 =
2017-10-18 14:15 METAR KW99 181815Z AUTO 15003KT 10SM CLR 21/04 A3031 RMK AO2 T02060038 =
2017-10-18 13:55 METAR KW99 181755Z AUTO 11004KT 10SM CLR 20/05 A3032 RMK AO2 T02030048 10203
                 20001 =
2017-10-18 13:35 METAR KW99 181735Z AUTO 00000KT 10SM CLR 19/05 A3033 RMK AO2 T01940045 =
2017-10-18 13:15 METAR KW99 181715Z AUTO 00000KT 10SM CLR 19/04 A3034 RMK AO2 T01910039 =
2017-10-18 12:55 METAR KW99 181655Z AUTO 00000KT 10SM CLR 18/04 A3036 RMK AO2 T01840038 =
2017-10-18 12:35 METAR KW99 181635Z AUTO 00000KT 10SM CLR 17/03 A3037 RMK AO2 T01740031 =
2017-10-18 12:15 METAR KW99 181615Z AUTO 00000KT 10SM CLR 16/05 A3038 RMK AO2 T01600045 =
2017-10-18 11:55 METAR KW99 181555Z AUTO 00000KT 10SM CLR 15/06 A3039 RMK AO2 T01530059 =
2017-10-18 11:35 METAR KW99 181535Z AUTO 00000KT 10SM CLR 14/05 A3040 RMK AO2 T01360054 =
2017-10-18 11:15 METAR KW99 181515Z AUTO 00000KT 10SM CLR 12/05 A3040 RMK AO2 T01240049 =
2017-10-18 10:55 METAR KW99 181455Z AUTO 00000KT 10SM CLR 11/05 A3040 RMK AO2 T01140049 =
2017-10-18 10:35 METAR KW99 181435Z AUTO 00000KT 10SM CLR 10/05 A3041 RMK AO2 T01020048 =
2017-10-18 10:15 METAR KW99 181415Z AUTO 00000KT 10SM CLR 09/04 A3041 RMK AO2 T00850043 =
2017-10-18 09:55 METAR KW99 181355Z AUTO 00000KT 10SM CLR 08/04 A3041 RMK AO2 T00750042 =
2017-10-18 09:35 METAR KW99 181335Z AUTO 00000KT 10SM CLR 06/04 A3042 RMK AO2 T00570036 =
2017-10-18 09:15 METAR KW99 181315Z AUTO 00000KT 10SM CLR 04/03 A3042 RMK AO2 T00410029 =
2017-10-18 08:55 METAR KW99 181255Z AUTO 00000KT 10SM CLR 03/02 A3042 RMK AO2 T00310023 =
2017-10-18 08:35 METAR KW99 181235Z AUTO 00000KT 10SM CLR 02/01 A3042 RMK AO2 T00170010 =
2017-10-18 08:15 METAR KW99 181215Z AUTO 00000KT 10SM CLR 01/01 A3041 RMK AO2 T00100007 =
2017-10-18 07:55 METAR KW99 181155Z AUTO 00000KT 7SM CLR 00/00 A3040 RMK AO2 T00010000 10024
                 20000 =
2017-10-18 07:30 METAR KW99 181130Z AUTO 00000KT 10SM CLR 00/00 A3039 RMK AO2 T00001003 =
2017-10-18 07:15 METAR KW99 181115Z AUTO 00000KT 10SM CLR 00/00 A3039 RMK AO2 T00010000 =
2017-10-18 06:55 METAR KW99 181055Z AUTO 00000KT 10SM CLR 00/00 A3038 RMK AO2 T00020000 =
2017-10-18 06:35 METAR KW99 181035Z AUTO 00000KT 10SM CLR 01/01 A3038 RMK AO2 T00080005 =
2017-10-18 06:15 METAR KW99 181015Z AUTO 00000KT 10SM CLR 01/00 A3037 RMK AO2 T00050001 =
2017-10-18 05:55 METAR KW99 180955Z AUTO 00000KT 10SM CLR 01/01 A3037 RMK AO2 T00120010 =
2017-10-18 05:35 METAR KW99 180935Z AUTO 00000KT 10SM CLR 01/01 A3036 RMK AO2 T00100006 =
2017-10-18 05:15 METAR KW99 180915Z AUTO 00000KT 10SM CLR 01/00 A3035 RMK AO2 T00070003 =
2017-10-18 04:55 METAR KW99 180855Z AUTO 00000KT 10SM CLR 01/01 A3035 RMK AO2 T00100006 =
2017-10-18 04:35 METAR KW99 180835Z AUTO 00000KT 10SM CLR 01/01 A3035 RMK AO2 T00130010 =
2017-10-18 04:15 METAR KW99 180815Z AUTO 00000KT 10SM CLR 01/01 A3035 RMK AO2 T00130010 =
2017-10-18 03:55 METAR KW99 180755Z AUTO 00000KT 10SM CLR 01/01 A3035 RMK AO2 T00120008 =
2017-10-18 03:35 METAR KW99 180735Z AUTO 00000KT 10SM CLR 02/02 A3035 RMK AO2 T00180015 =
2017-10-18 03:15 METAR KW99 180715Z AUTO 00000KT 10SM CLR 02/01 A3035 RMK AO2 T00150010 =
2017-10-18 02:55 METAR KW99 180655Z AUTO 00000KT 10SM CLR 02/01 A3034 RMK AO2 T00170012 =
2017-10-18 02:35 METAR KW99 180635Z AUTO 00000KT 10SM CLR 02/02 A3035 RMK AO2 T00240020 =
2017-10-18 02:15 METAR KW99 180615Z AUTO 00000KT 10SM CLR 02/02 A3035 RMK AO2 T00230019 =
2017-10-18 01:55 METAR KW99 180555Z AUTO 00000KT 10SM CLR 02/02 A3034 RMK AO2 T00200016 10086
                 20019 401800000 =
2017-10-18 01:35 METAR KW99 180535Z AUTO 00000KT 10SM CLR 02/02 A3034 RMK AO2 T00240019 =
2017-10-18 01:15 METAR KW99 180515Z AUTO 00000KT 10SM CLR 03/02 A3034 RMK AO2 T00270022 =
2017-10-18 00:55 METAR KW99 180455Z AUTO 00000KT 10SM CLR 03/03 A3034 RMK AO2 T00320027 =
2017-10-18 00:40 METAR KW99 180440Z AUTO 00000KT 10SM CLR 03/03 A3033 RMK AO2 T00330025 =
2017-10-18 00:15 METAR KW99 180415Z AUTO 00000KT 10SM CLR 03/02 A3033 RMK AO2 T00290024 =
2017-10-17 23:55 METAR KW99 180355Z AUTO 00000KT 10SM CLR 04/04 A3033 RMK AO2 T00400035 =
2017-10-17 23:35 METAR KW99 180335Z AUTO 00000KT 10SM CLR 04/03 A3034 RMK AO2 T00400030 =
2017-10-17 23:15 METAR KW99 180315Z AUTO 00000KT 10SM CLR 04/03 A3033 RMK AO2 T00390030 =
2017-10-17 22:55 METAR KW99 180255Z AUTO 00000KT 10SM CLR 04/03 A3034 RMK AO2 T00410031 =
2017-10-17 22:35 METAR KW99 180235Z AUTO 00000KT 10SM CLR 04/04 A3033 RMK AO2 T00440036 =
2017-10-17 22:15 METAR KW99 180215Z AUTO 00000KT 10SM CLR 05/04 A3033 RMK AO2 T00490035 =
2017-10-17 21:50 METAR KW99 180150Z AUTO 00000KT 10SM CLR 05/03 A3032 RMK AO2 T00490034 =
2017-10-17 21:35 METAR KW99 180135Z AUTO 00000KT 10SM CLR 06/04 A3031 RMK AO2 T00610044 =
2017-10-17 21:15 METAR KW99 180115Z AUTO 00000KT 10SM CLR 06/04 A3031 RMK AO2 T00630044 =
2017-10-17 20:55 METAR KW99 180055Z AUTO 00000KT 10SM CLR 07/05 A3030 RMK AO2 T00690050 =
2017-10-17 20:35 METAR KW99 180035Z AUTO 00000KT 10SM CLR 07/04 A3029 RMK AO2 T00720043 =
2017-10-17 20:15 METAR KW99 180015Z AUTO 00000KT 10SM CLR 08/05 A3029 RMK AO2 T00800048 =
2017-10-17 19:55 METAR KW99 172355Z AUTO 00000KT 10SM CLR 09/05 A3029 RMK AO2 T00870046 10180
                 20086 =
2017-10-17 19:35 METAR KW99 172335Z AUTO 00000KT 10SM CLR 09/05 A3028 RMK AO2 T00900050 =
2017-10-17 19:15 METAR KW99 172315Z AUTO 00000KT 10SM CLR 09/05 A3028 RMK AO2 T00900053 =
2017-10-17 18:55 METAR KW99 172255Z AUTO 29005KT 10SM CLR 10/05 A3028 RMK AO2 T01000053 =
2017-10-17 18:35 METAR KW99 172235Z AUTO 00000KT 10SM CLR 12/06 A3027 RMK AO2 T01160057 =
2017-10-17 18:15 METAR KW99 172215Z AUTO 00000KT 10SM CLR 14/05 A3026 RMK AO2 T01420053 =

Support USWX by starting your Amazon purchase here.